CheckWX is a tool to help pilots better visualize weather data.  It is not intended as a substitute for an official pre-flight weather briefing.

03:28:46 UTC

LGAV METAR
Eleftherios Venizelos International Airport
Athens, Greece
Current

39 mins ago

LGAV 180250Z 00000KT CAVOK 17/11 Q1014 NOSIG
Observed
Sep-18 @ 02:50 UTC
Visibility
10,000+ meters
Flight Rules
VFR
Cloud Levels
  • Clear skies
Temperature
17°C / 63°F
Dewpoint
11°C / 52°F
Humidity
68%
Altimeter
29.94" Hg
Pressure
1013.92 hPa
Previous

1 hour ago

LGAV 180220Z 00000KT CAVOK 20/15 Q1014 NOSIG
Observed
Sep-18 @ 02:20 UTC
Visibility
10,000+ meters
Flight Rules
VFR
Cloud Levels
  • Clear skies
Temperature
20°C / 68°F
Dewpoint
15°C / 59°F
Humidity
73%
Altimeter
29.94" Hg
Pressure
1013.92 hPa
Previous

2 hours ago

LGAV 180150Z 34001KT CAVOK 18/11 Q1014 NOSIG
Observed
Sep-18 @ 01:50 UTC
Wind
  • 340° at 1 KTS
Visibility
10,000+ meters
Flight Rules
VFR
Cloud Levels
  • Clear skies
Temperature
18°C / 64°F
Dewpoint
11°C / 52°F
Humidity
64%
Altimeter
29.94" Hg
Pressure
1013.92 hPa